createdAt,value
2018-08-12T00:00:24.448Z,49.97
2018-08-12T00:02:54.918Z,50.61
2018-08-12T00:05:25.027Z,50.63
2018-08-12T00:07:54.858Z,50.09
2018-08-12T00:10:25.584Z,51.04
2018-08-12T00:12:55.114Z,49.95
2018-08-12T00:15:25.013Z,49.99
2018-08-12T00:17:54.576Z,51.29
2018-08-12T00:20:24.393Z,50.70
2018-08-12T00:22:54.128Z,50.88
2018-08-12T00:25:24.739Z,50.18
2018-08-12T00:27:54.270Z,50.38
2018-08-12T00:30:24.186Z,49.92
2018-08-12T00:32:54.172Z,49.74
2018-08-12T00:35:23.785Z,50.44
2018-08-12T00:37:53.523Z,49.91
2018-08-12T00:40:24.410Z,49.96
2018-08-12T00:42:53.912Z,50.29
2018-08-12T00:45:23.445Z,49.75
2018-08-12T00:47:53.316Z,50.90
2018-08-12T00:50:23.248Z,50.02
2018-08-12T00:52:53.119Z,50.96
2018-08-12T00:55:22.843Z,50.34
2018-08-12T00:57:52.429Z,50.06
2018-08-12T01:00:23.193Z,50.83
2018-08-12T01:02:52.714Z,50.37
2018-08-12T01:05:22.654Z,50.42
2018-08-12T01:07:52.231Z,50.45
2018-08-12T01:10:22.065Z,50.74
2018-08-12T01:12:51.686Z,50.27
2018-08-12T01:15:22.418Z,50.55
2018-08-12T01:17:52.376Z,51.01
2018-08-12T01:20:25.401Z,49.92
2018-08-12T01:22:55.174Z,50.88
2018-08-12T01:25:24.832Z,50.55
2018-08-12T01:27:54.789Z,51.16
2018-08-12T01:30:24.684Z,50.60
2018-08-12T01:32:54.246Z,50.82
2018-08-12T01:35:23.819Z,51.36
2018-08-12T01:37:53.763Z,51.30
2018-08-12T01:40:23.660Z,50.87
2018-08-12T01:42:53.507Z,51.00
2018-08-12T01:45:23.268Z,51.14
2018-08-12T01:47:53.082Z,52.39
2018-08-12T01:50:22.947Z,51.12
2018-08-12T01:52:52.774Z,51.84
2018-08-12T01:55:22.702Z,53.23
2018-08-12T01:57:52.307Z,53.33
2018-08-12T02:00:22.886Z,53.24
2018-08-12T02:02:52.796Z,54.05
2018-08-12T02:05:22.976Z,53.30
2018-08-12T02:07:52.547Z,53.63
2018-08-12T02:10:22.492Z,54.62
2018-08-12T02:12:52.100Z,53.73
2018-08-12T02:15:21.649Z,54.25
2018-08-12T02:17:51.247Z,53.70
2018-08-12T02:20:21.053Z,54.65
2018-08-12T02:22:50.622Z,54.66
2018-08-12T02:25:20.630Z,55.61
2018-08-12T02:27:50.450Z,55.00
2018-08-12T02:30:19.978Z,55.42
2018-08-12T02:32:49.970Z,54.81
2018-08-12T02:35:19.548Z,55.40
2018-08-12T02:37:49.448Z,55.47
2018-08-12T02:40:18.981Z,55.26
2018-08-12T02:42:48.803Z,55.50
2018-08-12T02:45:18.388Z,55.86
2018-08-12T02:47:47.869Z,55.91
2018-08-12T02:50:17.743Z,56.21
2018-08-12T02:52:47.268Z,56.17
2018-08-12T02:55:16.810Z,55.98
2018-08-12T02:57:46.698Z,57.21
2018-08-12T03:00:16.444Z,57.14
2018-08-12T03:02:46.009Z,57.89
2018-08-12T03:05:15.577Z,57.12
2018-08-12T03:07:45.209Z,58.04
2018-08-12T03:10:14.774Z,57.90
2018-08-12T03:12:44.396Z,58.93
2018-08-12T03:15:14.477Z,58.82
2018-08-12T03:17:43.985Z,58.91
2018-08-12T03:20:13.999Z,58.83
2018-08-12T03:22:44.059Z,59.21
2018-08-12T03:25:14.064Z,60.02
2018-08-12T03:27:44.010Z,59.57
2018-08-12T03:30:13.818Z,59.45
2018-08-12T03:32:43.639Z,59.00
2018-08-12T03:35:13.291Z,57.91
2018-08-12T03:37:42.793Z,57.98
2018-08-12T03:40:13.950Z,57.55
2018-08-12T03:42:44.233Z,57.82
2018-08-12T03:45:14.317Z,57.26
2018-08-12T03:47:43.943Z,57.20
2018-08-12T03:50:13.860Z,57.37
2018-08-12T03:52:43.505Z,57.94
2018-08-12T03:55:13.947Z,57.36
2018-08-12T03:57:43.506Z,57.50
2018-08-12T04:00:17.337Z,57.21
2018-08-12T04:02:48.366Z,57.12
2018-08-12T04:05:18.916Z,57.08
2018-08-12T04:07:48.928Z,56.76
2018-08-12T04:10:18.802Z,56.19
2018-08-12T04:12:48.727Z,55.92
2018-08-12T04:15:18.343Z,55.57
2018-08-12T04:17:48.188Z,55.63
2018-08-12T04:20:17.771Z,54.73
2018-08-12T04:22:47.894Z,54.63
2018-08-12T04:25:17.498Z,54.47
2018-08-12T04:27:47.035Z,54.58
2018-08-12T04:30:17.060Z,53.72
2018-08-12T04:32:46.565Z,53.12
2018-08-12T04:35:16.229Z,53.29
2018-08-12T04:37:46.133Z,53.34
2018-08-12T04:40:15.761Z,53.13
2018-08-12T04:42:45.421Z,53.54
2018-08-12T04:45:15.272Z,52.54
2018-08-12T04:47:45.155Z,52.92
2018-08-12T04:50:14.767Z,52.77
2018-08-12T04:52:44.586Z,53.18
2018-08-12T04:55:14.248Z,52.85
2018-08-12T04:57:44.064Z,53.41
2018-08-12T05:00:13.735Z,52.59
2018-08-12T05:02:43.603Z,52.32
2018-08-12T05:05:13.610Z,52.16
2018-08-12T05:07:43.212Z,52.54
2018-08-12T05:10:13.435Z,52.00
2018-08-12T05:12:43.475Z,52.11
2018-08-12T05:15:13.387Z,52.07
2018-08-12T05:17:42.940Z,51.78
2018-08-12T05:20:12.588Z,51.69
2018-08-12T05:22:42.115Z,52.37
2018-08-12T05:25:12.786Z,51.62
2018-08-12T05:27:42.423Z,51.72
2018-08-12T05:30:12.309Z,51.40
2018-08-12T05:32:42.558Z,51.70
2018-08-12T05:35:13.707Z,51.59
2018-08-12T05:37:43.663Z,51.41
2018-08-12T05:40:13.905Z,52.08
2018-08-12T05:42:43.674Z,51.94
2018-08-12T05:45:13.458Z,50.86
2018-08-12T05:47:42.975Z,51.46
2018-08-12T05:50:13.018Z,51.12
2018-08-12T05:52:42.734Z,52.29
2018-08-12T05:55:12.667Z,50.68
2018-08-12T05:57:49.052Z,50.42
2018-08-12T06:00:18.649Z,50.80
2018-08-12T06:02:48.211Z,50.37
2018-08-12T06:05:17.946Z,49.27
2018-08-12T06:07:47.460Z,49.27
2018-08-12T06:10:17.007Z,49.18
2018-08-12T06:12:46.880Z,49.21
2018-08-12T06:15:18.142Z,48.97
2018-08-12T06:17:48.046Z,48.78
2018-08-12T06:20:17.880Z,48.75
2018-08-12T06:22:47.777Z,47.95
2018-08-12T06:25:17.612Z,46.64
2018-08-12T06:27:47.422Z,46.77
2018-08-12T06:30:17.304Z,46.01
2018-08-12T06:32:46.899Z,45.00
2018-08-12T06:35:17.117Z,43.78
2018-08-12T06:37:46.717Z,43.96
2018-08-12T06:40:16.265Z,43.62
2018-08-12T06:42:46.528Z,42.71
2018-08-12T06:45:18.502Z,41.59
2018-08-12T06:47:48.854Z,41.60
2018-08-12T06:50:18.880Z,40.46
2018-08-12T06:52:49.422Z,40.78
2018-08-12T06:55:19.235Z,40.04
2018-08-12T06:57:48.891Z,39.97
2018-08-12T07:00:19.678Z,39.80
2018-08-12T07:02:51.931Z,39.28
2018-08-12T07:05:21.748Z,38.79
2018-08-12T07:07:51.375Z,38.17
2018-08-12T07:10:21.103Z,37.12
2018-08-12T07:12:50.955Z,37.51
2018-08-12T07:15:20.608Z,37.52
2018-08-12T07:17:50.124Z,37.95
2018-08-12T07:20:19.906Z,37.96
2018-08-12T07:22:49.472Z,36.92
2018-08-12T07:25:18.988Z,37.43
2018-08-12T07:27:48.929Z,36.89
2018-08-12T07:30:18.524Z,37.01
2018-08-12T07:32:48.094Z,37.63
2018-08-12T07:35:17.830Z,36.01
2018-08-12T07:37:49.061Z,37.56
2018-08-12T07:40:21.096Z,36.36
2018-08-12T07:42:51.499Z,37.41
2018-08-12T07:45:21.410Z,36.15
2018-08-12T07:47:51.070Z,36.52
2018-08-12T07:50:20.989Z,36.31
2018-08-12T07:52:50.925Z,35.96
2018-08-12T07:55:20.550Z,35.71
2018-08-12T07:57:50.475Z,36.08
2018-08-12T08:00:20.937Z,35.16
2018-08-12T08:02:50.551Z,34.77
2018-08-12T08:05:20.316Z,33.71
2018-08-12T08:07:49.873Z,33.94
2018-08-12T08:10:19.464Z,34.54
2018-08-12T08:12:49.408Z,33.43
2018-08-12T08:15:20.961Z,33.26
2018-08-12T08:17:50.755Z,33.81
2018-08-12T08:20:20.736Z,33.28
2018-08-12T08:22:50.353Z,33.64
2018-08-12T08:25:20.266Z,32.43
2018-08-12T08:27:50.311Z,32.24
2018-08-12T08:30:19.870Z,32.10
2018-08-12T08:32:49.761Z,32.68
2018-08-12T08:35:19.763Z,32.09
2018-08-12T08:37:49.473Z,31.10
2018-08-12T08:40:19.140Z,31.43
2018-08-12T08:42:48.695Z,32.77
2018-08-12T08:45:20.644Z,31.88
2018-08-12T08:47:51.944Z,30.46
2018-08-12T08:50:23.164Z,31.06
2018-08-12T08:52:52.846Z,29.77
2018-08-12T08:55:22.860Z,30.66
2018-08-12T08:57:52.495Z,29.83
2018-08-12T09:00:22.515Z,30.31
2018-08-12T09:02:53.318Z,30.11
2018-08-12T09:05:23.445Z,30.36
2018-08-12T09:07:53.270Z,31.10
2018-08-12T09:10:22.977Z,30.59
2018-08-12T09:12:52.604Z,30.34
2018-08-12T09:15:22.456Z,29.72
2018-08-12T09:17:52.495Z,30.68
2018-08-12T09:20:22.541Z,30.75
2018-08-12T09:22:52.236Z,31.07
2018-08-12T09:25:22.229Z,30.26
2018-08-12T09:27:52.101Z,29.36
2018-08-12T09:30:22.552Z,30.60
2018-08-12T09:32:52.165Z,29.09
2018-08-12T09:35:21.928Z,29.85
2018-08-12T09:37:51.552Z,29.19
2018-08-12T09:40:21.331Z,28.89
2018-08-12T09:42:51.195Z,29.15
2018-08-12T09:45:21.993Z,29.26
2018-08-12T09:47:51.952Z,29.39
2018-08-12T09:50:22.177Z,30.65
2018-08-12T09:52:52.998Z,29.69
2018-08-12T09:55:22.994Z,30.58
2018-08-12T09:57:53.101Z,30.74
2018-08-12T10:00:25.996Z,31.24
2018-08-12T10:02:57.586Z,30.22
2018-08-12T10:05:28.017Z,31.18
2018-08-12T10:07:58.084Z,30.70
2018-08-12T10:10:27.983Z,30.18
2018-08-12T10:12:57.943Z,30.98
2018-08-12T10:15:30.922Z,30.56
2018-08-12T10:18:02.428Z,31.48
2018-08-12T10:20:32.401Z,30.34
2018-08-12T10:23:02.440Z,29.81
2018-08-12T10:25:33.909Z,31.69
2018-08-12T10:28:04.123Z,30.32
2018-08-12T10:30:33.889Z,30.87
2018-08-12T10:33:04.042Z,30.85
2018-08-12T10:35:34.022Z,31.22
2018-08-12T10:38:03.654Z,32.01
2018-08-12T10:40:33.678Z,31.75
2018-08-12T10:43:03.672Z,31.78
2018-08-12T10:45:33.644Z,31.72
2018-08-12T10:48:03.209Z,31.58
2018-08-12T10:50:32.830Z,32.16
2018-08-12T10:53:02.725Z,32.40
2018-08-12T10:55:39.021Z,31.98
2018-08-12T10:58:08.706Z,31.91
2018-08-12T11:00:38.933Z,31.24
2018-08-12T11:03:08.830Z,31.50
2018-08-12T11:05:38.858Z,30.93
2018-08-12T11:08:08.547Z,30.93
2018-08-12T11:10:38.464Z,31.84
2018-08-12T11:13:08.585Z,30.41
2018-08-12T11:15:38.493Z,31.18
2018-08-12T11:18:08.372Z,31.89
2018-08-12T11:20:38.319Z,30.84
2018-08-12T11:23:07.989Z,32.05
2018-08-12T11:25:37.623Z,31.01
2018-08-12T11:28:07.151Z,30.58
2018-08-12T11:30:36.721Z,30.85
2018-08-12T11:33:06.860Z,31.65
2018-08-12T11:35:36.463Z,31.17
2018-08-12T11:38:06.287Z,32.64
2018-08-12T11:40:36.089Z,32.39
2018-08-12T11:43:06.171Z,32.07
2018-08-12T11:45:35.798Z,30.54
2018-08-12T11:48:05.771Z,30.82
2018-08-12T11:50:35.828Z,31.02
2018-08-12T11:53:05.626Z,30.41
2018-08-12T11:55:35.170Z,31.01
2018-08-12T11:58:04.706Z,31.52
2018-08-12T12:00:34.354Z,30.61
2018-08-12T12:03:03.938Z,31.62
2018-08-12T12:05:33.579Z,30.41
2018-08-12T12:08:03.519Z,30.91
2018-08-12T12:10:33.070Z,31.66
2018-08-12T12:13:02.629Z,29.41
2018-08-12T12:15:32.213Z,29.26
2018-08-12T12:18:01.763Z,31.62
2018-08-12T12:20:31.598Z,31.42
2018-08-12T12:23:01.270Z,30.43
2018-08-12T12:25:30.942Z,31.55
2018-08-12T12:28:00.485Z,30.41
2018-08-12T12:30:30.387Z,31.30
2018-08-12T12:33:00.357Z,30.31
2018-08-12T12:35:30.515Z,31.08
2018-08-12T12:38:01.479Z,30.83
2018-08-12T12:40:31.081Z,30.81
2018-08-12T12:43:00.744Z,30.89
2018-08-12T12:45:30.423Z,30.69
2018-08-12T12:48:00.084Z,30.49
2018-08-12T12:50:29.727Z,29.81
2018-08-12T12:52:59.897Z,29.23
2018-08-12T12:55:29.450Z,30.31
2018-08-12T12:57:59.005Z,29.86
2018-08-12T13:00:28.726Z,29.81
2018-08-12T13:02:58.512Z,29.23
2018-08-12T13:05:28.416Z,29.86
2018-08-12T13:07:58.394Z,30.53
2018-08-12T13:10:28.143Z,29.16
2018-08-12T13:12:58.078Z,30.11
2018-08-12T13:15:27.648Z,30.88
2018-08-12T13:17:57.724Z,30.73
2018-08-12T13:20:27.337Z,29.95
2018-08-12T13:22:57.295Z,30.13
2018-08-12T13:25:26.900Z,28.24
2018-08-12T13:27:56.565Z,28.88
2018-08-12T13:30:26.380Z,29.81
2018-08-12T13:32:57.059Z,29.82
2018-08-12T13:35:27.344Z,29.53
2018-08-12T13:37:56.985Z,28.82
2018-08-12T13:40:27.472Z,29.36
2018-08-12T13:42:57.355Z,28.32
2018-08-12T13:45:27.169Z,29.16
2018-08-12T13:47:56.805Z,28.67
2018-08-12T13:50:26.378Z,28.53
2018-08-12T13:52:56.506Z,28.99
2018-08-12T13:55:26.050Z,27.90
2018-08-12T13:57:55.622Z,28.75
2018-08-12T14:00:26.898Z,28.21
2018-08-12T14:02:56.515Z,27.95
2018-08-12T14:05:26.272Z,27.67
2018-08-12T14:07:55.970Z,27.36
2018-08-12T14:10:25.613Z,28.22
2018-08-12T14:12:55.523Z,27.31
2018-08-12T14:15:25.138Z,26.90
2018-08-12T14:17:55.031Z,28.43
2018-08-12T14:20:24.622Z,28.03
2018-08-12T14:22:54.309Z,27.17
2018-08-12T14:25:24.340Z,28.71
2018-08-12T14:27:54.189Z,28.53
2018-08-12T14:30:24.007Z,27.90
2018-08-12T14:32:53.618Z,27.79
2018-08-12T14:35:23.427Z,26.90
2018-08-12T14:37:53.522Z,28.13
2018-08-12T14:40:23.121Z,26.55
2018-08-12T14:42:53.117Z,26.68
2018-08-12T14:45:22.989Z,26.82
2018-08-12T14:47:53.128Z,27.55
2018-08-12T14:50:22.697Z,26.80
2018-08-12T14:52:52.639Z,27.27
2018-08-12T14:55:22.618Z,27.66
2018-08-12T14:57:52.562Z,27.65
2018-08-12T15:00:23.172Z,26.12
2018-08-12T15:02:53.722Z,27.26
2018-08-12T15:05:23.996Z,27.52
2018-08-12T15:07:54.497Z,27.30
2018-08-12T15:10:24.157Z,26.20
2018-08-12T15:12:54.277Z,26.13
2018-08-12T15:15:24.331Z,27.33
2018-08-12T15:17:54.045Z,26.61
2018-08-12T15:20:23.874Z,27.85
2018-08-12T15:22:53.778Z,27.03
2018-08-12T15:25:23.713Z,27.17
2018-08-12T15:27:53.412Z,27.42
2018-08-12T15:30:22.980Z,25.92
2018-08-12T15:32:52.865Z,26.17
2018-08-12T15:35:23.073Z,26.45
2018-08-12T15:37:53.106Z,25.89
2018-08-12T15:40:22.685Z,26.20
2018-08-12T15:42:52.774Z,27.62
2018-08-12T15:45:22.872Z,26.70
2018-08-12T15:47:53.344Z,26.94
2018-08-12T15:50:23.121Z,25.60
2018-08-12T15:52:52.687Z,25.55
2018-08-12T15:55:22.496Z,25.22
2018-08-12T15:57:52.655Z,25.43
2018-08-12T16:00:24.350Z,26.84
2018-08-12T16:02:54.014Z,26.28
2018-08-12T16:05:23.620Z,25.13
2018-08-12T16:07:53.281Z,26.43
2018-08-12T16:10:23.978Z,26.17
2018-08-12T16:12:54.606Z,25.98
2018-08-12T16:15:24.699Z,24.91
2018-08-12T16:17:54.292Z,24.32
2018-08-12T16:20:24.184Z,24.09
2018-08-12T16:22:54.079Z,24.75
2018-08-12T16:25:23.719Z,25.10
2018-08-12T16:27:53.283Z,24.08
2018-08-12T16:30:23.123Z,23.85
2018-08-12T16:32:52.714Z,24.06
2018-08-12T16:35:22.465Z,24.05
2018-08-12T16:37:52.492Z,24.97
2018-08-12T16:40:22.794Z,24.12
2018-08-12T16:42:52.405Z,25.47
2018-08-12T16:45:22.329Z,24.59
2018-08-12T16:47:51.895Z,24.92
2018-08-12T16:50:21.698Z,25.83
2018-08-12T16:52:51.472Z,25.64
2018-08-12T16:55:21.168Z,25.24
2018-08-12T16:57:51.425Z,24.46
2018-08-12T17:00:25.104Z,25.71
2018-08-12T17:02:54.699Z,25.61
2018-08-12T17:05:24.673Z,24.79
2018-08-12T17:07:55.589Z,25.99
2018-08-12T17:10:25.490Z,25.10
2018-08-12T17:12:55.094Z,25.17
2018-08-12T17:15:24.897Z,25.63
2018-08-12T17:17:55.363Z,26.23
2018-08-12T17:20:25.148Z,25.27
2018-08-12T17:22:55.342Z,25.22
2018-08-12T17:25:25.330Z,26.31
2018-08-12T17:27:55.100Z,26.49
2018-08-12T17:30:24.833Z,26.70
2018-08-12T17:32:54.573Z,27.43
2018-08-12T17:35:24.162Z,27.15
2018-08-12T17:37:54.042Z,26.35
2018-08-12T17:40:24.064Z,26.54
2018-08-12T17:42:53.741Z,26.21
2018-08-12T17:45:23.669Z,25.79
2018-08-12T17:47:53.621Z,26.24
2018-08-12T17:50:23.318Z,27.47
2018-08-12T17:52:52.927Z,27.26
2018-08-12T17:55:23.160Z,27.11
2018-08-12T17:57:53.044Z,26.48
2018-08-12T18:00:23.152Z,26.94
2018-08-12T18:02:52.740Z,27.04
2018-08-12T18:05:23.180Z,27.97
2018-08-12T18:07:52.733Z,28.41
2018-08-12T18:10:22.401Z,28.55
2018-08-12T18:12:52.668Z,28.37
2018-08-12T18:15:22.289Z,28.86
2018-08-12T18:17:51.831Z,28.45
2018-08-12T18:20:21.766Z,28.54
2018-08-12T18:22:51.373Z,29.16
2018-08-12T18:25:20.991Z,28.68
2018-08-12T18:27:50.698Z,28.98
2018-08-12T18:30:20.905Z,29.56
2018-08-12T18:32:50.486Z,29.57
2018-08-12T18:35:24.121Z,29.81
2018-08-12T18:37:53.771Z,29.57
2018-08-12T18:40:23.676Z,30.25
2018-08-12T18:42:53.508Z,30.02
2018-08-12T18:45:23.085Z,32.09
2018-08-12T18:47:52.695Z,32.58
2018-08-12T18:50:22.288Z,33.48
2018-08-12T18:52:52.181Z,34.43
2018-08-12T18:55:22.511Z,34.64
2018-08-12T18:57:52.107Z,35.97
2018-08-12T19:00:21.721Z,36.13
2018-08-12T19:02:51.406Z,35.97
2018-08-12T19:05:21.001Z,37.15
2018-08-12T19:07:51.081Z,37.62
2018-08-12T19:10:20.971Z,38.00
2018-08-12T19:12:50.617Z,37.41
2018-08-12T19:15:20.710Z,37.53
2018-08-12T19:17:50.695Z,38.17
2018-08-12T19:20:20.749Z,38.69
2018-08-12T19:22:50.329Z,39.42
2018-08-12T19:25:22.084Z,39.53
2018-08-12T19:27:55.462Z,39.99
2018-08-12T19:30:28.788Z,39.59
2018-08-12T19:32:58.610Z,38.07
2018-08-12T19:35:31.470Z,39.50
2018-08-12T19:38:04.307Z,39.44
2018-08-12T19:40:35.401Z,39.32
2018-08-12T19:43:08.719Z,40.14
2018-08-12T19:45:42.175Z,39.42
2018-08-12T19:48:13.414Z,39.99
2018-08-12T19:50:44.074Z,40.19
2018-08-12T19:53:17.049Z,41.31
2018-08-12T19:55:50.045Z,40.30
2018-08-12T19:58:23.160Z,39.38
2018-08-12T20:00:55.864Z,40.04
2018-08-12T20:03:28.373Z,39.34
2018-08-12T20:06:01.196Z,40.68
2018-08-12T20:08:34.587Z,40.64
2018-08-12T20:11:07.943Z,39.66
2018-08-12T20:13:41.941Z,40.44
2018-08-12T20:16:14.798Z,40.53
2018-08-12T20:18:48.183Z,40.57
2018-08-12T20:21:21.353Z,41.23
2018-08-12T20:23:54.236Z,41.60
2018-08-12T20:26:27.881Z,41.19
2018-08-12T20:29:01.286Z,41.82
2018-08-12T20:31:30.990Z,42.12
2018-08-12T20:34:04.005Z,41.88
2018-08-12T20:36:37.196Z,42.06
2018-08-12T20:39:12.421Z,41.66
2018-08-12T20:41:45.728Z,42.01
2018-08-12T20:44:18.469Z,41.52
2018-08-12T20:46:50.429Z,41.13
2018-08-12T20:49:23.770Z,39.11
2018-08-12T20:51:56.964Z,38.85
2018-08-12T20:54:29.771Z,38.77
2018-08-12T20:57:02.492Z,38.14
2018-08-12T20:59:35.118Z,37.73
2018-08-12T21:02:09.250Z,36.99
2018-08-12T21:04:42.791Z,37.35
2018-08-12T21:07:16.256Z,36.48
2018-08-12T21:09:47.569Z,36.73
2018-08-12T21:12:21.163Z,36.84
2018-08-12T21:14:51.973Z,36.72
2018-08-12T21:17:25.197Z,36.62
2018-08-12T21:19:58.745Z,36.18
2018-08-12T21:22:32.440Z,37.39
2018-08-12T21:25:05.213Z,36.38
2018-08-12T21:27:37.790Z,36.64
2018-08-12T21:30:09.914Z,36.90
2018-08-12T21:32:42.988Z,36.69
2018-08-12T21:35:14.572Z,36.57
2018-08-12T21:37:47.610Z,36.23
2018-08-12T21:40:20.784Z,35.30
2018-08-12T21:42:53.955Z,36.14
2018-08-12T21:45:27.915Z,35.32
2018-08-12T21:48:01.468Z,35.05
2018-08-12T21:50:34.600Z,35.15
2018-08-12T21:53:07.485Z,36.20
2018-08-12T21:55:40.830Z,35.50
2018-08-12T21:58:11.832Z,35.11
2018-08-12T22:00:45.083Z,36.23
2018-08-12T22:03:18.575Z,35.35
2018-08-12T22:05:52.629Z,35.74
2018-08-12T22:08:25.719Z,35.02
2018-08-12T22:10:59.047Z,35.22
2018-08-12T22:13:32.243Z,35.87
2018-08-12T22:16:05.437Z,35.58
2018-08-12T22:18:39.068Z,35.92
2018-08-12T22:21:12.844Z,35.44
2018-08-12T22:23:46.090Z,35.38
2018-08-12T22:26:19.173Z,36.37
2018-08-12T22:28:50.526Z,35.32
2018-08-12T22:31:24.080Z,36.50
2018-08-12T22:33:54.606Z,36.15
2018-08-12T22:36:24.468Z,35.68
2018-08-12T22:38:54.162Z,35.76
2018-08-12T22:41:24.300Z,36.51
2018-08-12T22:43:54.885Z,36.67
2018-08-12T22:46:27.414Z,35.76
2018-08-12T22:48:58.439Z,36.00
2018-08-12T22:51:29.862Z,36.69
2018-08-12T22:54:00.572Z,36.56
2018-08-12T22:56:32.217Z,36.11
2018-08-12T22:59:04.270Z,36.33
2018-08-12T23:01:38.358Z,36.26
2018-08-12T23:04:11.762Z,36.30
2018-08-12T23:06:45.517Z,36.59
2018-08-12T23:09:19.266Z,37.36
2018-08-12T23:11:51.843Z,36.97
2018-08-12T23:14:24.808Z,36.63
2018-08-12T23:17:03.858Z,37.33
2018-08-12T23:19:36.578Z,37.34
2018-08-12T23:22:09.830Z,37.66
2018-08-12T23:24:44.093Z,36.67
2018-08-12T23:27:16.979Z,36.45
2018-08-12T23:29:50.352Z,37.26
2018-08-12T23:32:23.868Z,37.73
2018-08-12T23:35:00.408Z,37.66
2018-08-12T23:37:34.881Z,37.27
2018-08-12T23:40:09.270Z,37.87
2018-08-12T23:42:42.437Z,36.87
2018-08-12T23:45:16.178Z,36.93
2018-08-12T23:47:49.417Z,37.96
2018-08-12T23:50:22.788Z,37.07
2018-08-12T23:52:55.390Z,38.10
2018-08-12T23:55:28.762Z,37.20
2018-08-12T23:57:58.861Z,38.11
